Time;durP1;ratioP1;P1;durP2;ratioP2;P2;SDS_P1;SDS_P2;PMS_P1;PMS_P2;Temp;Humidity;BMP_temperature;BMP_pressure;BME280_temperature;BME280_humidity;BME280_pressure;Samples;Min_cycle;Max_cycle;Signal;HPM_P1;HPM_P2
2022/07/09 00:00:36;;;;;;;5.65;4.63;;;20.50;60.00;;;;;;5031557;28;20231;-86
2022/07/09 00:03:02;;;;;;;5.00;4.60;;;20.50;59.90;;;;;;5026815;28;21964;-86
2022/07/09 00:05:28;;;;;;;4.47;4.13;;;20.50;59.90;;;;;;5031511;28;20194;-87
2022/07/09 00:07:54;;;;;;;4.78;4.35;;;20.50;59.90;;;;;;5039007;28;20220;-87
2022/07/09 00:10:19;;;;;;;5.10;4.43;;;20.40;60.90;;;;;;5028448;28;20219;-87
2022/07/09 00:12:45;;;;;;;4.50;4.20;;;20.40;60.00;;;;;;5027695;28;20214;-85
2022/07/09 00:15:11;;;;;;;5.18;4.53;;;20.40;60.30;;;;;;5037579;28;20178;-85
2022/07/09 00:17:37;;;;;;;4.78;4.47;;;20.30;60.90;;;;;;5032481;28;20192;-85
2022/07/09 00:20:04;;;;;;;4.70;4.30;;;20.20;61.00;;;;;;5031687;28;20210;-85
2022/07/09 00:22:31;;;;;;;4.90;4.60;;;20.20;61.40;;;;;;5030013;28;20507;-85
2022/07/09 00:24:58;;;;;;;4.70;4.35;;;20.10;61.70;;;;;;5030816;28;20216;-86
2022/07/09 00:27:23;;;;;;;4.68;4.32;;;20.20;61.70;;;;;;5028840;28;20192;-85
2022/07/09 00:29:49;;;;;;;4.82;4.43;;;20.10;62.00;;;;;;5034610;28;20678;-86
2022/07/09 00:32:18;;;;;;;5.05;4.65;;;20.00;62.00;;;;;;5027674;28;20183;-85
2022/07/09 00:34:44;;;;;;;4.70;4.30;;;20.00;62.00;;;;;;5032109;28;20208;-85
2022/07/09 00:37:11;;;;;;;4.80;4.05;;;20.10;61.70;;;;;;5029885;28;20203;-87
2022/07/09 00:39:37;;;;;;;5.20;4.28;;;20.10;61.60;;;;;;5030184;28;20186;-86
2022/07/09 00:42:08;;;;;;;4.70;4.40;;;20.10;61.40;;;;;;5031948;28;20215;-86
2022/07/09 00:44:35;;;;;;;4.55;4.22;;;20.20;61.00;;;;;;5033145;28;20203;-86
2022/07/09 00:47:02;;;;;;;4.65;4.35;;;20.10;61.30;;;;;;5039262;28;20202;-87
2022/07/09 00:49:29;;;;;;;4.93;4.53;;;20.00;61.30;;;;;;5031570;28;20192;-86
2022/07/09 00:51:59;;;;;;;5.03;4.65;;;20.00;61.40;;;;;;5030676;28;20198;-86
2022/07/09 00:54:28;;;;;;;7.35;4.68;;;20.00;61.40;;;;;;5033698;28;20217;-86
2022/07/09 00:56:54;;;;;;;4.53;4.20;;;19.90;61.50;;;;;;5033261;28;20181;-86
2022/07/09 00:59:21;;;;;;;4.60;4.30;;;19.80;61.90;;;;;;5035765;28;20188;-86
2022/07/09 01:01:50;;;;;;;5.03;4.50;;;19.80;61.80;;;;;;5035076;28;20193;-87
2022/07/09 01:04:16;;;;;;;4.72;4.43;;;19.80;61.90;;;;;;5034909;28;20205;-86
2022/07/09 01:06:42;;;;;;;4.53;4.22;;;19.80;61.60;;;;;;5033289;28;20183;-86
2022/07/09 01:09:08;;;;;;;4.88;4.50;;;19.90;61.30;;;;;;5035592;28;20188;-86
2022/07/09 01:11:34;;;;;;;4.88;4.47;;;19.80;61.30;;;;;;5032758;28;20212;-85
2022/07/09 01:14:00;;;;;;;4.97;4.47;;;19.70;62.30;;;;;;5028606;28;20221;-86
2022/07/09 01:16:34;;;;;;;5.03;4.63;;;19.70;61.20;;;;;;5031941;28;20204;-86
2022/07/09 01:19:00;;;;;;;4.97;4.47;;;19.70;61.80;;;;;;5034991;28;20198;-87
2022/07/09 01:21:26;;;;;;;5.50;4.68;;;19.50;61.70;;;;;;5038572;28;20186;-85
2022/07/09 01:23:52;;;;;;;4.72;4.38;;;19.50;62.20;;;;;;5034304;28;20206;-86
2022/07/09 01:26:22;;;;;;;5.07;4.75;;;19.50;62.10;;;;;;5033304;28;20192;-86
2022/07/09 01:28:47;;;;;;;4.70;4.32;;;19.50;62.50;;;;;;5036881;28;20176;-86
2022/07/09 01:31:14;;;;;;;5.65;4.53;;;19.50;62.20;;;;;;5037282;28;20227;-86
2022/07/09 01:33:40;;;;;;;4.65;4.22;;;19.50;61.80;;;;;;5029592;28;20206;-86
2022/07/09 01:36:07;;;;;;;5.10;4.70;;;19.60;61.50;;;;;;5030214;28;20637;-86
2022/07/09 01:38:33;;;;;;;5.05;4.70;;;19.50;61.80;;;;;;5030470;28;20280;-85
2022/07/09 01:41:01;;;;;;;5.18;4.68;;;19.40;62.00;;;;;;5035151;28;20224;-85
2022/07/09 01:43:27;;;;;;;4.82;4.53;;;19.40;62.10;;;;;;5033940;28;20231;-86
2022/07/09 01:45:52;;;;;;;5.28;4.78;;;19.40;62.00;;;;;;5030114;28;20650;-87
2022/07/09 01:48:18;;;;;;;4.72;4.43;;;19.30;62.00;;;;;;5037824;28;20185;-86
2022/07/09 01:50:44;;;;;;;5.00;4.60;;;19.30;62.30;;;;;;5036210;28;20205;-86
2022/07/09 01:53:10;;;;;;;4.93;4.43;;;19.30;62.10;;;;;;5042402;28;20197;-86
2022/07/09 01:55:36;;;;;;;4.95;4.55;;;19.20;62.00;;;;;;5027642;28;20186;-87
2022/07/09 01:58:02;;;;;;;5.30;4.78;;;19.10;62.50;;;;;;5030411;28;20581;-86
2022/07/09 02:00:29;;;;;;;5.10;4.70;;;19.00;62.90;;;;;;5034498;28;20272;-86
2022/07/09 02:02:55;;;;;;;4.70;4.30;;;18.90;62.80;;;;;;5034533;28;20195;-86
2022/07/09 02:05:21;;;;;;;5.18;4.80;;;18.90;63.50;;;;;;5026553;28;20837;-87
2022/07/09 02:07:47;;;;;;;5.53;4.85;;;18.90;63.60;;;;;;5043242;28;20177;-85
2022/07/09 02:10:13;;;;;;;6.38;5.03;;;18.90;63.40;;;;;;5038326;28;20327;-87
2022/07/09 02:12:40;;;;;;;5.07;4.57;;;19.00;63.10;;;;;;5030135;28;20214;-88
2022/07/09 02:15:07;;;;;;;5.53;5.03;;;19.10;62.80;;;;;;5030343;28;20220;-86
2022/07/09 02:17:34;;;;;;;5.18;4.78;;;19.10;62.70;;;;;;5031840;28;20249;-87
2022/07/09 02:20:00;;;;;;;5.55;5.15;;;19.00;62.90;;;;;;5029324;28;20269;-87
2022/07/09 02:22:25;;;;;;;5.82;4.55;;;19.00;63.00;;;;;;5034821;28;20649;-87
2022/07/09 02:24:51;;;;;;;4.88;4.47;;;19.00;62.60;;;;;;5029364;28;20443;-86
2022/07/09 02:27:17;;;;;;;4.65;4.30;;;18.90;62.80;;;;;;5017468;28;20228;-86
2022/07/09 02:29:42;;;;;;;5.07;4.35;;;18.90;63.20;;;;;;5030195;28;20193;-86
2022/07/09 02:32:11;;;;;;;5.22;4.93;;;18.90;63.30;;;;;;5035639;28;20197;-86
2022/07/09 02:34:38;;;;;;;5.55;5.15;;;18.70;63.50;;;;;;5037292;28;20223;-86
2022/07/09 02:37:05;;;;;;;5.50;5.10;;;18.60;64.00;;;;;;5026197;28;20189;-86
2022/07/09 02:39:31;;;;;;;5.78;5.15;;;18.60;64.30;;;;;;5039148;28;20287;-86
2022/07/09 02:41:57;;;;;;;5.22;4.88;;;18.70;63.80;;;;;;5034752;28;20185;-87
2022/07/09 02:44:22;;;;;;;6.35;4.70;;;18.70;63.80;;;;;;5032895;28;20213;-86
2022/07/09 02:46:48;;;;;;;5.65;5.15;;;18.70;63.70;;;;;;5036211;28;20661;-87
2022/07/09 02:49:14;;;;;;;5.30;4.90;;;18.70;63.70;;;;;;5035045;28;20189;-89
2022/07/09 02:51:40;;;;;;;5.65;5.15;;;18.70;63.70;;;;;;5034467;28;20275;-85
2022/07/09 02:54:05;;;;;;;4.90;4.60;;;18.80;63.60;;;;;;5032727;28;20287;-87
2022/07/09 02:56:31;;;;;;;5.38;4.88;;;18.70;63.80;;;;;;5032020;28;20201;-86
2022/07/09 02:58:57;;;;;;;5.43;5.05;;;18.60;63.50;;;;;;5029652;28;20243;-87
2022/07/09 03:01:23;;;;;;;5.25;4.90;;;18.60;63.70;;;;;;5029712;28;20204;-84
2022/07/09 03:03:48;;;;;;;5.22;4.93;;;18.60;63.60;;;;;;5028795;28;20209;-83
2022/07/09 03:06:14;;;;;;;5.35;5.00;;;18.60;63.60;;;;;;5034442;28;20298;-84
2022/07/09 03:08:40;;;;;;;5.50;5.20;;;18.60;63.70;;;;;;5035023;28;20731;-83
2022/07/09 03:11:06;;;;;;;5.22;4.93;;;18.60;63.90;;;;;;5032765;28;20205;-82
2022/07/09 03:13:33;;;;;;;5.63;5.22;;;18.50;64.40;;;;;;5017560;28;20712;-84
2022/07/09 03:15:59;;;;;;;5.35;4.88;;;18.50;64.60;;;;;;5033359;28;20196;-83
2022/07/09 03:18:27;;;;;;;5.32;4.90;;;18.40;64.70;;;;;;5032970;28;20338;-84
2022/07/09 03:20:53;;;;;;;5.32;4.93;;;18.40;64.50;;;;;;5039549;28;20200;-83
2022/07/09 03:23:19;;;;;;;5.15;4.85;;;18.50;64.10;;;;;;5029776;28;20256;-84
2022/07/09 03:25:45;;;;;;;5.43;5.03;;;18.40;64.20;;;;;;5027399;28;20181;-84
2022/07/09 03:28:10;;;;;;;5.78;5.38;;;18.40;64.30;;;;;;5032205;28;20558;-84
2022/07/09 03:30:36;;;;;;;5.93;5.50;;;18.40;64.40;;;;;;5032382;28;20208;-84
2022/07/09 03:33:02;;;;;;;5.88;5.43;;;18.40;64.80;;;;;;5026607;28;20196;-85
2022/07/09 03:35:27;;;;;;;6.20;5.68;;;18.20;65.30;;;;;;5031349;28;20182;-84
2022/07/09 03:37:54;;;;;;;5.72;5.38;;;18.20;65.70;;;;;;5030365;28;20260;-84
2022/07/09 03:40:20;;;;;;;5.60;5.20;;;18.30;65.60;;;;;;5030438;28;20261;-84
2022/07/09 03:42:46;;;;;;;5.72;5.32;;;18.30;65.30;;;;;;5031417;28;20235;-84
2022/07/09 03:45:14;;;;;;;5.13;4.82;;;18.30;65.10;;;;;;5033545;28;20192;-84
2022/07/09 03:47:40;;;;;;;6.20;5.70;;;18.30;65.20;;;;;;5028489;28;20659;-83
2022/07/09 03:50:07;;;;;;;5.55;5.15;;;18.20;65.60;;;;;;5029381;28;20247;-82
2022/07/09 03:52:33;;;;;;;5.88;5.47;;;18.20;65.90;;;;;;5038315;28;20195;-83
2022/07/09 03:54:58;;;;;;;5.88;5.38;;;18.10;65.90;;;;;;5027796;28;20220;-84
2022/07/09 03:57:24;;;;;;;5.65;5.18;;;18.10;66.10;;;;;;5034831;28;20698;-82
2022/07/09 03:59:50;;;;;;;5.97;5.20;;;18.10;65.90;;;;;;5043340;28;20188;-83
2022/07/09 04:02:16;;;;;;;5.90;5.50;;;18.10;65.70;;;;;;5044122;28;20440;-83
2022/07/09 04:04:43;;;;;;;5.25;4.95;;;18.20;65.80;;;;;;5041669;28;20239;-83
2022/07/09 04:07:09;;;;;;;5.63;5.22;;;18.10;66.00;;;;;;5036464;28;20187;-82
2022/07/09 04:09:35;;;;;;;7.25;5.93;;;18.00;66.10;;;;;;5036248;28;20193;-83
2022/07/09 04:12:01;;;;;;;5.85;5.45;;;18.10;66.50;;;;;;5029843;28;20210;-83
2022/07/09 04:14:27;;;;;;;5.28;4.78;;;18.00;66.60;;;;;;5034230;28;20209;-83
2022/07/09 04:16:52;;;;;;;5.90;5.35;;;18.00;66.30;;;;;;5029413;28;20196;-83
2022/07/09 04:19:18;;;;;;;5.65;5.25;;;18.00;66.90;;;;;;5034716;28;20192;-84
2022/07/09 04:21:44;;;;;;;5.78;5.38;;;17.90;66.90;;;;;;5024304;28;20186;-84
2022/07/09 04:24:10;;;;;;;6.22;5.63;;;17.90;66.90;;;;;;5020582;28;20216;-84
2022/07/09 04:26:36;;;;;;;6.20;5.70;;;18.00;66.60;;;;;;5027677;28;20193;-84
2022/07/09 04:29:01;;;;;;;6.40;5.80;;;18.00;66.40;;;;;;5032091;28;20245;-82
2022/07/09 04:31:27;;;;;;;6.28;5.68;;;18.10;66.40;;;;;;5031332;28;20204;-84
2022/07/09 04:33:53;;;;;;;6.85;5.88;;;18.20;66.10;;;;;;5036870;28;20206;-83
2022/07/09 04:36:18;;;;;;;8.88;6.07;;;18.20;66.20;;;;;;5037127;28;20199;-83
2022/07/09 04:38:44;;;;;;;6.32;5.90;;;18.20;66.10;;;;;;5035911;28;20195;-83
2022/07/09 04:41:10;;;;;;;7.32;5.53;;;18.20;66.10;;;;;;5030306;28;20214;-84
2022/07/09 04:43:35;;;;;;;6.30;5.80;;;18.20;65.80;;;;;;5034422;28;20616;-82
2022/07/09 04:46:01;;;;;;;6.40;5.93;;;18.20;66.30;;;;;;5027681;28;20192;-83
2022/07/09 04:48:27;;;;;;;6.50;6.00;;;18.30;65.70;;;;;;5030683;28;20204;-85
2022/07/09 04:50:53;;;;;;;7.53;6.18;;;18.30;65.50;;;;;;5027652;28;20209;-83
2022/07/09 04:53:19;;;;;;;7.20;6.53;;;18.30;66.00;;;;;;5034064;28;20213;-82
2022/07/09 04:55:44;;;;;;;6.72;6.15;;;18.30;66.40;;;;;;5031821;28;20204;-83
2022/07/09 04:58:10;;;;;;;7.97;6.32;;;18.30;66.70;;;;;;5029415;28;20193;-84
2022/07/09 05:00:36;;;;;;;6.45;5.95;;;18.30;66.50;;;;;;5030958;28;20189;-83
2022/07/09 05:03:02;;;;;;;7.18;6.57;;;18.40;67.10;;;;;;5031706;28;20216;-83
2022/07/09 05:05:28;;;;;;;6.68;6.25;;;18.30;67.20;;;;;;5031643;28;20201;-83
2022/07/09 05:07:53;;;;;;;6.50;6.00;;;18.40;67.10;;;;;;5026249;28;20251;-83
2022/07/09 05:10:19;;;;;;;7.18;6.53;;;18.60;66.50;;;;;;5030683;28;20224;-84
2022/07/09 05:12:46;;;;;;;6.70;6.10;;;18.60;66.70;;;;;;5036045;28;20390;-83
2022/07/09 05:15:16;;;;;;;6.72;6.22;;;18.70;66.20;;;;;;5037447;28;20292;-83
2022/07/09 05:17:41;;;;;;;6.38;5.80;;;18.60;65.70;;;;;;5036297;28;20174;-83
2022/07/09 05:20:09;;;;;;;8.43;6.32;;;18.60;65.50;;;;;;5031246;28;20211;-83
2022/07/09 05:22:37;;;;;;;6.40;6.07;;;18.60;66.00;;;;;;5030481;28;20209;-83
2022/07/09 05:25:04;;;;;;;6.25;5.75;;;18.60;65.40;;;;;;5027387;28;20212;-84
2022/07/09 05:27:30;;;;;;;6.80;6.30;;;18.70;65.10;;;;;;5028320;28;20197;-84
2022/07/09 05:29:56;;;;;;;6.50;5.90;;;18.70;64.10;;;;;;5033441;28;20212;-84
2022/07/09 05:32:22;;;;;;;6.85;6.28;;;18.80;63.70;;;;;;5031184;28;20182;-84
2022/07/09 05:34:47;;;;;;;6.53;6.03;;;18.80;63.30;;;;;;5029550;28;20266;-85
2022/07/09 05:37:13;;;;;;;6.30;5.80;;;18.80;63.60;;;;;;5027972;28;20272;-83
2022/07/09 05:39:39;;;;;;;7.68;6.20;;;18.90;63.50;;;;;;5033123;28;20181;-84
2022/07/09 05:42:05;;;;;;;6.40;5.90;;;18.90;63.40;;;;;;5031471;28;20208;-83
2022/07/09 05:44:31;;;;;;;6.93;6.43;;;19.00;63.50;;;;;;5036237;28;20201;-84
2022/07/09 05:46:58;;;;;;;6.43;5.78;;;19.10;65.40;;;;;;5029739;28;20219;-83
2022/07/09 05:49:25;;;;;;;6.82;6.32;;;19.10;65.60;;;;;;5030667;28;20208;-84
2022/07/09 05:51:51;;;;;;;7.05;6.55;;;19.10;64.90;;;;;;5040579;28;20203;-85
2022/07/09 05:54:17;;;;;;;6.25;5.75;;;19.10;64.90;;;;;;5026612;28;20229;-84
2022/07/09 05:56:42;;;;;;;6.18;5.78;;;19.20;64.60;;;;;;5034232;28;20181;-85
2022/07/09 05:59:08;;;;;;;6.70;6.20;;;19.10;65.20;;;;;;5025644;28;20575;-85
2022/07/09 06:01:39;;;;;;;6.50;6.00;;;19.20;65.10;;;;;;5033552;28;20232;-83
2022/07/09 06:04:08;;;;;;;6.05;5.65;;;19.20;65.30;;;;;;5038254;28;20208;-84
2022/07/09 06:06:35;;;;;;;5.93;5.57;;;19.30;65.00;;;;;;5037280;28;20188;-81
2022/07/09 06:09:00;;;;;;;6.43;5.68;;;19.20;64.60;;;;;;5039722;28;20189;-83
2022/07/09 06:11:26;;;;;;;6.63;6.13;;;19.30;65.20;;;;;;5029577;28;20203;-83
2022/07/09 06:13:52;;;;;;;6.32;5.82;;;19.50;64.30;;;;;;5032724;28;20214;-83
2022/07/09 06:16:18;;;;;;;6.30;5.80;;;19.50;62.30;;;;;;5031753;28;20183;-84
2022/07/09 06:18:44;;;;;;;7.53;6.22;;;19.50;63.00;;;;;;5035023;28;20179;-83
2022/07/09 06:21:09;;;;;;;6.70;6.10;;;19.60;63.40;;;;;;5030103;28;20195;-83
2022/07/09 06:23:35;;;;;;;6.63;6.05;;;19.70;63.70;;;;;;5032656;28;20719;-84
2022/07/09 06:26:01;;;;;;;6.90;6.30;;;19.70;63.60;;;;;;5031028;28;20185;-83
2022/07/09 06:28:27;;;;;;;6.75;6.25;;;19.80;64.90;;;;;;5033770;28;20585;-83
2022/07/09 06:30:52;;;;;;;6.65;5.97;;;19.60;63.60;;;;;;5033989;28;20262;-83
2022/07/09 06:33:18;;;;;;;7.00;6.50;;;19.60;63.70;;;;;;5040126;28;20208;-83
2022/07/09 06:35:44;;;;;;;7.22;6.72;;;19.50;64.60;;;;;;5035269;28;20186;-81
2022/07/09 06:38:09;;;;;;;6.95;6.50;;;19.50;65.30;;;;;;5038378;28;20185;-82
2022/07/09 06:40:35;;;;;;;7.15;6.55;;;19.50;65.10;;;;;;5041135;28;20197;-81
2022/07/09 06:43:01;;;;;;;8.10;7.53;;;19.70;64.30;;;;;;5036907;28;20697;-84
2022/07/09 06:45:26;;;;;;;8.82;7.85;;;19.80;65.50;;;;;;5034938;28;20206;-84
2022/07/09 06:47:52;;;;;;;8.55;7.75;;;19.80;65.60;;;;;;5046415;28;20223;-84
2022/07/09 06:50:19;;;;;;;7.13;6.63;;;19.80;65.80;;;;;;5034049;28;20218;-84
2022/07/09 06:52:44;;;;;;;7.22;6.70;;;19.90;66.40;;;;;;5039191;28;20370;-85
2022/07/09 06:55:10;;;;;;;10.80;10.00;;;20.00;65.60;;;;;;5032667;28;20241;-85
2022/07/09 06:57:36;;;;;;;8.48;7.88;;;20.10;65.50;;;;;;5040211;28;20543;-85
2022/07/09 07:00:06;;;;;;;7.88;7.10;;;20.10;66.10;;;;;;5042627;28;20189;-85
2022/07/09 07:02:32;;;;;;;7.70;7.10;;;20.20;65.20;;;;;;5039843;28;20193;-85
2022/07/09 07:04:58;;;;;;;8.40;7.80;;;20.10;66.20;;;;;;5036690;28;20234;-83
2022/07/09 07:07:24;;;;;;;8.40;7.72;;;20.20;66.70;;;;;;5030339;28;20191;-83
2022/07/09 07:09:50;;;;;;;7.38;6.88;;;20.10;67.10;;;;;;5036347;28;20205;-83
2022/07/09 07:12:15;;;;;;;7.82;6.93;;;20.30;65.80;;;;;;5033808;28;20617;-83
2022/07/09 07:14:42;;;;;;;8.43;7.55;;;20.50;64.90;;;;;;5037362;28;20280;-85
2022/07/09 07:17:08;;;;;;;7.63;7.00;;;20.80;64.50;;;;;;5040892;28;20939;-85
2022/07/09 07:19:34;;;;;;;7.57;6.88;;;20.80;64.30;;;;;;5029428;28;20279;-85
2022/07/09 07:22:00;;;;;;;7.80;7.20;;;21.00;63.70;;;;;;5033490;28;20192;-85
2022/07/09 07:24:26;;;;;;;7.80;7.10;;;21.30;63.90;;;;;;5033399;28;20228;-87
2022/07/09 07:26:52;;;;;;;7.63;7.03;;;21.30;62.90;;;;;;5037164;28;20185;-86
2022/07/09 07:29:17;;;;;;;7.28;6.57;;;21.30;63.20;;;;;;5035622;28;20205;-88
2022/07/09 07:31:43;;;;;;;7.40;6.80;;;21.40;62.30;;;;;;5034597;28;20220;-87
2022/07/09 07:34:09;;;;;;;6.72;6.32;;;21.40;62.80;;;;;;5039551;28;20200;-86
2022/07/09 07:36:34;;;;;;;7.88;7.20;;;21.50;62.20;;;;;;5031442;28;20216;-87
2022/07/09 07:39:00;;;;;;;6.95;6.45;;;21.50;62.90;;;;;;5037830;28;20253;-87
2022/07/09 07:41:26;;;;;;;7.35;6.75;;;21.60;60.80;;;;;;5030739;28;20186;-87
2022/07/09 07:43:52;;;;;;;7.63;6.97;;;21.60;63.80;;;;;;5032221;28;20208;-86
2022/07/09 07:46:18;;;;;;;7.30;6.70;;;21.80;61.90;;;;;;5030085;28;20215;-87
2022/07/09 07:48:44;;;;;;;7.82;7.32;;;21.80;61.80;;;;;;5027500;28;20909;-86
2022/07/09 07:51:10;;;;;;;7.13;6.53;;;21.80;62.50;;;;;;5025215;28;20263;-89
2022/07/09 07:53:36;;;;;;;7.25;6.63;;;21.90;62.00;;;;;;5031856;28;20355;-86
2022/07/09 07:56:04;;;;;;;7.72;7.18;;;22.10;61.20;;;;;;5034166;28;20679;-87
2022/07/09 07:58:30;;;;;;;7.47;6.97;;;22.10;61.70;;;;;;5031273;28;20193;-86
2022/07/09 08:00:56;;;;;;;6.93;6.43;;;22.10;61.80;;;;;;5030542;28;20209;-86
2022/07/09 08:03:22;;;;;;;7.60;6.70;;;22.20;61.10;;;;;;5037812;28;20299;-86
2022/07/09 08:05:48;;;;;;;7.70;7.07;;;22.30;59.80;;;;;;5040506;28;20301;-86
2022/07/09 08:08:14;;;;;;;6.90;6.38;;;22.50;59.00;;;;;;5032102;28;20185;-87
2022/07/09 08:10:40;;;;;;;6.28;5.85;;;22.70;58.40;;;;;;5032522;28;20272;-87
2022/07/09 08:13:06;;;;;;;7.13;6.32;;;22.80;57.20;;;;;;5031106;28;20181;-85
2022/07/09 08:15:31;;;;;;;6.63;6.10;;;22.80;58.30;;;;;;5032851;28;20186;-85
2022/07/09 08:17:57;;;;;;;7.60;6.43;;;22.90;57.80;;;;;;5033061;28;20199;-85
2022/07/09 08:20:23;;;;;;;6.15;5.75;;;23.00;57.20;;;;;;5028515;28;20212;-86
2022/07/09 08:22:49;;;;;;;6.63;6.20;;;23.10;57.20;;;;;;5038395;28;20205;-86
2022/07/09 08:25:14;;;;;;;7.05;6.50;;;23.30;55.80;;;;;;5034428;28;20193;-85
2022/07/09 08:27:40;;;;;;;6.53;6.10;;;23.30;55.20;;;;;;5030286;28;20205;-86
2022/07/09 08:30:07;;;;;;;6.13;5.65;;;23.40;54.80;;;;;;5033547;28;20220;-85
2022/07/09 08:32:32;;;;;;;6.25;5.85;;;23.40;56.10;;;;;;5032531;28;20247;-85
2022/07/09 08:34:58;;;;;;;5.78;5.15;;;23.50;54.60;;;;;;5049594;28;20185;-87
2022/07/09 08:37:24;;;;;;;4.57;4.25;;;23.70;51.90;;;;;;5039907;28;20303;-86
2022/07/09 08:39:50;;;;;;;4.78;4.47;;;23.90;50.60;;;;;;5045372;28;20180;-86
2022/07/09 08:42:16;;;;;;;6.05;4.40;;;24.00;51.90;;;;;;5026717;28;20195;-86
2022/07/09 08:44:46;;;;;;;4.60;4.28;;;24.10;49.10;;;;;;5020284;28;20266;-86
2022/07/09 08:47:11;;;;;;;5.18;4.70;;;24.20;50.30;;;;;;5025077;28;20192;-86
2022/07/09 08:49:38;;;;;;;4.63;4.32;;;24.30;51.80;;;;;;5022548;28;20284;-86
2022/07/09 08:52:06;;;;;;;4.40;4.20;;;24.40;51.30;;;;;;5020372;28;20192;-86
2022/07/09 08:54:37;;;;;;;4.35;3.95;;;24.40;51.80;;;;;;5024092;28;20253;-86
2022/07/09 08:57:05;;;;;;;5.30;4.80;;;24.60;49.60;;;;;;5021426;28;20271;-86
2022/07/09 08:59:31;;;;;;;5.10;4.80;;;24.70;48.30;;;;;;5025266;28;20252;-86
2022/07/09 09:01:57;;;;;;;5.22;4.78;;;24.70;47.10;;;;;;5025054;28;20181;-86
2022/07/09 09:04:24;;;;;;;6.25;5.25;;;24.70;46.80;;;;;;5024546;28;20266;-85
2022/07/09 09:06:50;;;;;;;5.53;5.10;;;24.70;46.40;;;;;;5025744;28;20238;-85
2022/07/09 09:09:19;;;;;;;5.28;4.82;;;24.80;46.20;;;;;;5029130;28;20181;-85
2022/07/09 09:11:49;;;;;;;4.80;4.50;;;25.00;45.30;;;;;;5024898;28;20208;-85
2022/07/09 09:14:22;;;;;;;5.63;5.10;;;25.20;44.20;;;;;;5031246;28;20205;-85
2022/07/09 09:16:48;;;;;;;5.65;5.22;;;25.40;44.40;;;;;;5030436;28;20193;-85
2022/07/09 09:19:14;;;;;;;5.78;5.28;;;25.50;45.90;;;;;;5021933;28;20200;-85
2022/07/09 09:21:40;;;;;;;5.90;5.50;;;25.20;46.80;;;;;;5024929;28;20189;-85
2022/07/09 09:24:06;;;;;;;5.75;5.32;;;24.90;48.30;;;;;;5025042;28;20259;-86
2022/07/09 09:26:35;;;;;;;5.60;5.20;;;25.20;46.30;;;;;;5023986;28;20193;-86
2022/07/09 09:29:04;;;;;;;5.63;5.15;;;25.50;46.00;;;;;;5025435;28;20193;-85
2022/07/09 09:31:34;;;;;;;5.57;4.82;;;25.70;43.80;;;;;;5025159;28;20241;-87
2022/07/09 09:34:08;;;;;;;5.40;5.03;;;25.90;43.00;;;;;;5023605;28;20213;-86
2022/07/09 09:36:39;;;;;;;5.40;4.95;;;25.90;42.50;;;;;;5025732;28;20192;-86
2022/07/09 09:39:13;;;;;;;8.02;5.60;;;26.10;40.40;;;;;;5025289;28;20200;-86
2022/07/09 09:41:40;;;;;;;5.55;5.15;;;26.20;39.40;;;;;;5023922;28;20184;-87
2022/07/09 09:44:09;;;;;;;5.25;4.82;;;26.10;39.50;;;;;;5024494;28;20205;-86
2022/07/09 09:46:37;;;;;;;5.43;4.93;;;26.10;39.70;;;;;;5019024;28;20290;-86
2022/07/09 09:49:07;;;;;;;5.38;4.97;;;26.30;38.20;;;;;;5027204;28;20260;-86
2022/07/09 09:51:55;;;;;;;4.90;4.60;;;26.40;38.20;;;;;;5018549;28;20316;-86
2022/07/09 09:54:21;;;;;;;5.47;5.07;;;26.40;38.40;;;;;;5016849;28;20240;-86
2022/07/09 09:56:49;;;;;;;5.32;4.85;;;26.10;39.60;;;;;;5021850;28;20215;-86
2022/07/09 09:59:15;;;;;;;5.47;5.07;;;26.10;41.20;;;;;;5022432;28;20181;-86
2022/07/09 10:01:42;;;;;;;5.47;5.13;;;25.90;40.40;;;;;;5019793;28;20530;-86
2022/07/09 10:04:13;;;;;;;5.20;4.90;;;26.40;39.30;;;;;;5018565;28;20223;-86
2022/07/09 10:06:40;;;;;;;5.35;5.00;;;27.00;38.60;;;;;;5019854;28;20196;-86
2022/07/09 10:09:11;;;;;;;5.10;4.70;;;27.20;38.60;;;;;;5025572;28;20188;-86
2022/07/09 10:11:48;;;;;;;5.03;4.72;;;27.60;37.60;;;;;;5024919;28;20205;-86
2022/07/09 10:14:33;;;;;;;5.28;4.88;;;27.70;37.00;;;;;;5029802;28;20211;-86
2022/07/09 10:17:13;;;;;;;5.50;5.10;;;27.50;37.80;;;;;;5025173;28;20185;-86
2022/07/09 10:20:00;;;;;;;5.40;5.00;;;27.70;38.50;;;;;;5029296;28;20188;-86
2022/07/09 10:22:42;;;;;;;5.90;5.40;;;27.90;38.90;;;;;;5018183;28;20224;-86
2022/07/09 10:25:09;;;;;;;5.70;5.25;;;28.20;38.20;;;;;;5025321;28;20219;-86
2022/07/09 10:27:46;;;;;;;5.35;4.95;;;28.40;38.10;;;;;;5023272;28;20185;-86
2022/07/09 10:30:33;;;;;;;5.68;5.18;;;28.50;38.20;;;;;;5027997;28;20205;-86
2022/07/09 10:33:04;;;;;;;5.70;5.40;;;28.80;37.10;;;;;;5029885;28;20177;-86
2022/07/09 10:35:30;;;;;;;5.45;5.15;;;28.90;35.50;;;;;;5027358;28;20176;-86
2022/07/09 10:37:56;;;;;;;5.85;5.55;;;28.80;36.00;;;;;;5030977;28;20192;-86
2022/07/09 10:40:23;;;;;;;5.55;5.25;;;28.90;34.80;;;;;;5032576;28;20181;-86
2022/07/09 10:43:00;;;;;;;5.85;5.45;;;28.70;37.60;;;;;;5032443;28;20275;-85
2022/07/09 10:45:35;;;;;;;6.35;5.07;;;28.70;37.00;;;;;;5024991;28;20197;-86
2022/07/09 10:48:03;;;;;;;5.80;5.40;;;28.70;37.40;;;;;;5029218;28;20195;-84
2022/07/09 10:50:30;;;;;;;6.00;5.60;;;28.90;36.30;;;;;;5031012;28;20193;-85
2022/07/09 10:52:57;;;;;;;6.55;5.90;;;28.50;37.00;;;;;;5030444;28;20195;-83
2022/07/09 10:55:26;;;;;;;5.68;5.28;;;28.10;37.60;;;;;;5029631;28;20205;-83
2022/07/09 10:57:53;;;;;;;5.63;5.32;;;28.00;37.60;;;;;;5033796;28;20200;-84
2022/07/09 11:00:23;;;;;;;5.40;5.18;;;28.20;37.30;;;;;;5028894;28;20201;-83
2022/07/09 11:02:55;;;;;;;6.10;5.63;;;28.60;36.50;;;;;;5033883;28;20272;-86
2022/07/09 11:05:22;;;;;;;5.55;5.22;;;28.70;36.20;;;;;;5028010;28;20274;-86
2022/07/09 11:07:58;;;;;;;5.30;5.00;;;28.80;35.80;;;;;;5027561;28;20212;-88
2022/07/09 11:10:25;;;;;;;5.63;5.22;;;29.20;35.80;;;;;;5029920;28;20207;-86
2022/07/09 11:12:51;;;;;;;6.20;5.63;;;29.20;35.90;;;;;;5033441;28;20291;-87
2022/07/09 11:15:19;;;;;;;5.30;5.00;;;29.40;37.40;;;;;;5026614;28;20239;-88
2022/07/09 11:17:54;;;;;;;5.10;4.80;;;29.10;36.40;;;;;;5031554;28;20200;-86
2022/07/09 11:20:20;;;;;;;6.07;5.57;;;29.30;36.10;;;;;;5024868;28;20713;-87
2022/07/09 11:22:50;;;;;;;6.10;5.60;;;29.20;36.00;;;;;;5027305;28;20270;-89
2022/07/09 11:25:16;;;;;;;6.20;5.80;;;30.00;35.30;;;;;;5022480;28;20569;-87
2022/07/09 11:27:43;;;;;;;7.18;5.60;;;29.90;35.50;;;;;;5026939;28;20185;-85
2022/07/09 11:30:15;;;;;;;5.57;5.18;;;29.60;36.50;;;;;;5031867;28;20240;-87
2022/07/09 11:32:45;;;;;;;7.85;5.22;;;29.90;34.50;;;;;;5032549;28;20199;-84
2022/07/09 11:35:11;;;;;;;6.20;5.65;;;30.30;34.20;;;;;;5033258;28;20216;-89
2022/07/09 11:37:38;;;;;;;5.97;5.47;;;30.20;34.70;;;;;;5024336;28;20189;-86
2022/07/09 11:40:05;;;;;;;5.63;5.32;;;29.90;34.00;;;;;;5029339;28;20261;-86
2022/07/09 11:42:31;;;;;;;6.18;5.88;;;29.80;34.30;;;;;;5031954;28;20562;-88
2022/07/09 11:44:59;;;;;;;6.10;5.80;;;29.60;35.60;;;;;;5037402;28;20259;-85
2022/07/09 11:48:01;;;;;;;6.15;5.78;;;29.20;35.50;;;;;;5028436;28;20667;-86
2022/07/09 11:50:27;;;;;;;6.13;5.63;;;29.30;35.30;;;;;;5026765;28;20205;-85
2022/07/09 11:52:53;;;;;;;6.43;5.90;;;29.10;36.30;;;;;;5025744;28;20208;-85
2022/07/09 11:55:27;;;;;;;6.20;5.80;;;28.80;37.10;;;;;;5028732;28;20210;-86
2022/07/09 11:58:19;;;;;;;6.35;5.97;;;28.90;36.90;;;;;;5031015;28;20189;-87
2022/07/09 12:00:44;;;;;;;6.15;5.78;;;28.80;35.80;;;;;;5028976;28;20241;-86
2022/07/09 12:03:10;;;;;;;6.18;5.78;;;28.90;36.90;;;;;;5031678;28;20209;-86
2022/07/09 12:05:37;;;;;;;7.47;6.38;;;29.30;36.10;;;;;;5033178;28;20193;-85
2022/07/09 12:08:07;;;;;;;6.32;5.72;;;29.80;36.00;;;;;;5035242;28;20716;-86
2022/07/09 12:10:37;;;;;;;6.05;5.75;;;29.70;34.90;;;;;;5031191;28;20204;-86
2022/07/09 12:13:04;;;;;;;6.30;6.00;;;29.70;35.60;;;;;;5031815;28;20185;-86
2022/07/09 12:15:30;;;;;;;5.53;5.13;;;29.80;36.80;;;;;;5033060;28;20181;-88
2022/07/09 12:18:02;;;;;;;5.80;5.50;;;30.10;36.20;;;;;;5036782;28;20231;-85
2022/07/09 12:20:31;;;;;;;6.28;5.88;;;30.50;33.90;;;;;;5036933;28;20188;-86
2022/07/09 12:22:57;;;;;;;6.15;5.85;;;30.80;33.10;;;;;;5040602;28;20276;-86
2022/07/09 12:25:23;;;;;;;6.43;5.85;;;30.90;32.70;;;;;;5047423;28;20207;-88
2022/07/09 12:27:49;;;;;;;6.95;6.57;;;30.80;32.30;;;;;;5033610;28;20220;-86
2022/07/09 12:30:16;;;;;;;7.15;6.63;;;31.00;33.00;;;;;;5032918;28;20205;-88
2022/07/09 12:32:42;;;;;;;6.95;6.63;;;30.80;32.30;;;;;;5043761;28;20189;-86
2022/07/09 12:35:09;;;;;;;7.57;7.03;;;31.20;32.50;;;;;;5031099;28;20947;-87
2022/07/09 12:37:36;;;;;;;7.57;7.18;;;31.20;32.40;;;;;;5040326;28;20236;-86
2022/07/09 12:40:03;;;;;;;21.35;8.95;;;31.20;32.10;;;;;;5044973;28;20241;-86
2022/07/09 12:42:29;;;;;;;7.80;7.45;;;31.40;33.20;;;;;;5040937;28;20211;-86
2022/07/09 12:44:55;;;;;;;7.93;7.20;;;31.80;31.10;;;;;;5038232;28;20228;-87